createdAt,value
2023-02-15T00:01:43.864Z,44.67
2023-02-15T00:04:14.048Z,29.38
2023-02-15T00:06:41.060Z,44.95
2023-02-15T00:09:07.879Z,66.40
2023-02-15T00:11:40.534Z,61.38
2023-02-15T00:14:16.285Z,44.80
2023-02-15T00:16:44.840Z,110.28
2023-02-15T00:19:15.221Z,116.32
2023-02-15T00:21:42.348Z,101.70
2023-02-15T00:24:11.396Z,76.60
2023-02-15T00:26:40.242Z,41.95
2023-02-15T00:29:07.897Z,36.30
2023-02-15T00:31:35.159Z,35.65
2023-02-15T00:34:06.945Z,39.70
2023-02-15T00:36:33.864Z,41.30
2023-02-15T00:39:00.596Z,67.60
2023-02-15T00:41:27.441Z,55.25
2023-02-15T00:43:54.195Z,64.88
2023-02-15T00:46:20.997Z,94.43
2023-02-15T00:48:47.875Z,47.78
2023-02-15T00:51:14.870Z,64.72
2023-02-15T00:53:41.664Z,97.18
2023-02-15T00:56:08.393Z,140.77
2023-02-15T00:58:35.139Z,84.63
2023-02-15T01:01:11.285Z,29.65
2023-02-15T01:03:38.692Z,34.97
2023-02-15T01:06:06.107Z,65.55
2023-02-15T01:08:32.900Z,88.88
2023-02-15T01:11:05.899Z,139.52
2023-02-15T01:13:33.062Z,59.40
2023-02-15T01:16:00.174Z,42.38
2023-02-15T01:18:27.726Z,82.00
2023-02-15T01:20:54.476Z,74.10
2023-02-15T01:23:21.376Z,49.70
2023-02-15T01:25:48.335Z,36.58
2023-02-15T01:28:15.179Z,60.50
2023-02-15T01:30:42.227Z,56.20
2023-02-15T01:33:12.588Z,50.65
2023-02-15T01:35:39.333Z,59.25
2023-02-15T01:38:06.046Z,30.90
2023-02-15T01:40:32.727Z,30.75
2023-02-15T01:42:59.413Z,53.28
2023-02-15T01:45:32.581Z,32.63
2023-02-15T01:48:28.283Z,39.72
2023-02-15T01:50:59.920Z,42.38
2023-02-15T01:53:46.820Z,66.30
2023-02-15T01:56:20.881Z,27.98
2023-02-15T01:58:48.601Z,35.40
2023-02-15T02:01:15.362Z,51.72
2023-02-15T02:04:05.904Z,136.00
2023-02-15T02:06:34.404Z,48.63
2023-02-15T02:09:01.600Z,44.35
2023-02-15T02:11:28.506Z,130.48
2023-02-15T02:13:56.896Z,133.35
2023-02-15T02:16:29.471Z,62.60
2023-02-15T02:19:26.728Z,85.55
2023-02-15T02:22:13.706Z,77.40
2023-02-15T02:25:07.489Z,95.78
2023-02-15T02:27:47.729Z,107.18
2023-02-15T02:30:17.262Z,57.15
2023-02-15T02:33:01.894Z,108.85
2023-02-15T02:35:45.764Z,34.45
2023-02-15T02:38:33.139Z,57.33
2023-02-15T02:41:18.853Z,57.78
2023-02-15T02:43:52.371Z,55.70
2023-02-15T02:46:27.283Z,79.78
2023-02-15T02:48:54.686Z,94.78
2023-02-15T02:51:23.199Z,233.13
2023-02-15T02:53:57.741Z,50.22
2023-02-15T02:56:41.859Z,58.05
2023-02-15T02:59:14.955Z,65.18
2023-02-15T03:02:25.517Z,29.65
2023-02-15T03:04:59.589Z,59.38
2023-02-15T03:07:29.799Z,33.50
2023-02-15T03:09:59.584Z,115.55
2023-02-15T03:12:32.340Z,74.43
2023-02-15T03:15:05.073Z,34.75
2023-02-15T03:17:35.051Z,58.28
2023-02-15T03:20:10.824Z,56.92
2023-02-15T03:22:42.955Z,38.00
2023-02-15T03:25:15.425Z,40.88
2023-02-15T03:27:46.792Z,79.93
2023-02-15T03:30:16.045Z,66.60
2023-02-15T03:32:45.760Z,61.95
2023-02-15T03:35:12.530Z,48.10
2023-02-15T03:37:48.567Z,51.92
2023-02-15T03:40:42.469Z,113.90
2023-02-15T03:43:37.713Z,78.35
2023-02-15T03:46:31.074Z,85.53
2023-02-15T03:49:18.003Z,124.72
2023-02-15T03:51:48.442Z,88.53
2023-02-15T03:54:41.181Z,55.47
2023-02-15T03:57:31.591Z,39.80
2023-02-15T04:00:18.432Z,83.13
2023-02-15T04:03:00.143Z,67.32
2023-02-15T04:05:27.036Z,75.05
2023-02-15T04:07:53.764Z,35.60
2023-02-15T04:10:38.984Z,43.70
2023-02-15T04:13:05.670Z,57.28
2023-02-15T04:15:58.656Z,83.10
2023-02-15T04:18:44.255Z,67.32
2023-02-15T04:21:29.780Z,92.85
2023-02-15T04:24:15.434Z,50.47
2023-02-15T04:26:42.179Z,102.78
2023-02-15T04:29:08.968Z,141.70
2023-02-15T04:31:35.759Z,187.98
2023-02-15T04:34:02.561Z,34.28
2023-02-15T04:36:29.236Z,42.45
2023-02-15T04:38:55.958Z,75.07
2023-02-15T04:41:22.703Z,117.63
2023-02-15T04:43:49.393Z,78.32
2023-02-15T04:46:16.117Z,52.75
2023-02-15T04:48:42.935Z,83.18
2023-02-15T04:51:10.429Z,41.95
2023-02-15T04:53:37.163Z,49.22
2023-02-15T04:56:04.256Z,57.75
2023-02-15T04:58:31.054Z,89.85
2023-02-15T05:00:58.394Z,39.72
2023-02-15T05:03:25.641Z,45.97
2023-02-15T05:05:52.414Z,47.80
2023-02-15T05:08:19.188Z,78.40
2023-02-15T05:10:45.990Z,40.58
2023-02-15T05:13:12.804Z,87.47
2023-02-15T05:15:39.542Z,49.22
2023-02-15T05:18:07.359Z,31.20
2023-02-15T05:20:34.823Z,33.72
2023-02-15T05:23:01.491Z,32.70
2023-02-15T05:25:46.824Z,36.70
2023-02-15T05:28:22.706Z,42.15
2023-02-15T05:31:05.348Z,39.53
2023-02-15T05:33:32.786Z,32.65
2023-02-15T05:36:01.833Z,39.58
2023-02-15T05:38:28.958Z,27.17
2023-02-15T05:40:56.244Z,39.08
2023-02-15T05:43:23.408Z,34.28
2023-02-15T05:45:54.851Z,35.15
2023-02-15T05:48:25.423Z,43.55
2023-02-15T05:51:21.517Z,57.00
2023-02-15T05:53:48.260Z,36.30
2023-02-15T05:56:15.000Z,35.38
2023-02-15T05:58:42.757Z,35.88
2023-02-15T06:01:15.195Z,27.50
2023-02-15T06:03:42.334Z,37.28
2023-02-15T06:06:09.187Z,34.45
2023-02-15T06:08:37.169Z,27.92
2023-02-15T06:11:05.290Z,30.85
2023-02-15T06:13:32.875Z,26.67
2023-02-15T06:15:59.788Z,28.50
2023-02-15T06:18:27.061Z,35.30
2023-02-15T06:20:53.754Z,27.90
2023-02-15T06:23:20.467Z,37.50
2023-02-15T06:25:47.625Z,26.10
2023-02-15T06:28:14.561Z,28.65
2023-02-15T06:30:41.439Z,23.55
2023-02-15T06:33:08.200Z,26.25
2023-02-15T06:35:35.012Z,28.40
2023-02-15T06:38:01.748Z,32.00
2023-02-15T06:40:28.473Z,25.23
2023-02-15T06:42:55.152Z,56.63
2023-02-15T06:45:21.938Z,29.88
2023-02-15T06:47:48.729Z,33.35
2023-02-15T06:50:15.589Z,30.42
2023-02-15T06:52:42.383Z,28.70
2023-02-15T06:55:09.241Z,37.03
2023-02-15T06:57:36.042Z,27.92
2023-02-15T07:00:05.800Z,27.08
2023-02-15T07:02:32.825Z,31.65
2023-02-15T07:04:59.694Z,25.67
2023-02-15T07:07:26.525Z,28.48
2023-02-15T07:09:53.217Z,26.83
2023-02-15T07:12:38.731Z,32.17
2023-02-15T07:15:07.760Z,23.52
2023-02-15T07:17:36.236Z,21.33
2023-02-15T07:20:09.010Z,22.90
2023-02-15T07:22:37.172Z,29.20
2023-02-15T07:25:05.631Z,21.52
2023-02-15T07:27:32.950Z,31.80
2023-02-15T07:30:00.589Z,30.58
2023-02-15T07:32:32.009Z,26.00
2023-02-15T07:34:59.900Z,27.73
2023-02-15T07:37:27.378Z,30.00
2023-02-15T07:39:54.162Z,34.38
2023-02-15T07:42:22.099Z,24.88
2023-02-15T07:44:48.942Z,26.20
2023-02-15T07:47:15.788Z,45.38
2023-02-15T07:49:42.700Z,45.35
2023-02-15T07:52:09.471Z,28.58
2023-02-15T07:54:36.249Z,29.70
2023-02-15T07:57:03.304Z,35.40
2023-02-15T07:59:30.079Z,28.42
2023-02-15T08:01:57.532Z,29.38
2023-02-15T08:04:25.032Z,27.80
2023-02-15T08:06:55.370Z,28.73
2023-02-15T08:09:22.335Z,27.35
2023-02-15T08:11:49.085Z,28.30
2023-02-15T08:14:21.409Z,23.30
2023-02-15T08:16:49.647Z,25.67
2023-02-15T08:19:19.798Z,29.50
2023-02-15T08:21:50.165Z,29.88
2023-02-15T08:24:19.106Z,26.70
2023-02-15T08:26:47.656Z,25.80
2023-02-15T08:29:19.802Z,25.73
2023-02-15T08:31:47.764Z,30.17
2023-02-15T08:34:17.935Z,25.45
2023-02-15T08:36:46.137Z,28.95
2023-02-15T08:39:13.505Z,25.73
2023-02-15T08:41:42.924Z,29.67
2023-02-15T08:44:10.611Z,29.45
2023-02-15T08:46:42.532Z,23.95
2023-02-15T08:49:10.591Z,26.05
2023-02-15T08:51:39.593Z,21.52
2023-02-15T08:54:13.774Z,25.42
2023-02-15T08:56:42.479Z,23.55
2023-02-15T08:59:17.657Z,26.88
2023-02-15T09:01:45.896Z,24.92
2023-02-15T09:04:14.086Z,26.52
2023-02-15T09:06:42.523Z,26.10
2023-02-15T09:09:09.966Z,26.30
2023-02-15T09:11:39.736Z,30.42
2023-02-15T09:14:10.268Z,21.88
2023-02-15T09:16:39.069Z,25.40
2023-02-15T09:19:06.886Z,23.75
2023-02-15T09:21:36.731Z,23.48
2023-02-15T09:24:06.019Z,21.95
2023-02-15T09:26:34.993Z,22.63
2023-02-15T09:29:04.413Z,26.35
2023-02-15T09:31:34.807Z,21.30
2023-02-15T09:34:02.747Z,21.58
2023-02-15T09:36:35.107Z,25.83
2023-02-15T09:39:21.354Z,22.15
2023-02-15T09:42:20.051Z,19.90
2023-02-15T09:45:13.706Z,26.50
2023-02-15T09:48:05.833Z,25.20
2023-02-15T09:50:57.279Z,23.60
2023-02-15T09:53:35.294Z,23.27
2023-02-15T09:56:39.743Z,22.95
2023-02-15T09:59:25.621Z,23.63
2023-02-15T10:01:58.474Z,22.00
2023-02-15T10:04:41.521Z,27.25
2023-02-15T10:07:43.946Z,25.23
2023-02-15T10:10:49.490Z,20.58
2023-02-15T10:13:47.555Z,24.90
2023-02-15T10:16:29.207Z,22.20
2023-02-15T10:19:06.260Z,24.05
2023-02-15T10:21:58.713Z,23.30
2023-02-15T10:24:48.899Z,26.20
2023-02-15T10:27:22.774Z,25.73
2023-02-15T10:30:02.098Z,22.77
2023-02-15T10:32:31.610Z,26.40
2023-02-15T10:35:23.104Z,23.35
2023-02-15T10:38:05.205Z,21.30
2023-02-15T10:41:03.475Z,23.63
2023-02-15T10:44:09.034Z,21.15
2023-02-15T10:46:58.687Z,20.88
2023-02-15T10:49:40.188Z,20.13
2023-02-15T10:52:09.708Z,23.65
2023-02-15T10:55:11.759Z,21.13
2023-02-15T10:58:06.224Z,22.88
2023-02-15T11:00:40.151Z,25.25
2023-02-15T11:03:30.196Z,27.33
2023-02-15T11:06:16.137Z,20.17
2023-02-15T11:08:53.140Z,20.63
2023-02-15T11:11:28.572Z,20.48
2023-02-15T11:14:01.444Z,18.92
2023-02-15T11:16:38.446Z,18.98
2023-02-15T11:19:36.860Z,24.42
2023-02-15T11:22:06.531Z,27.17
2023-02-15T11:24:41.234Z,24.13
2023-02-15T11:27:17.890Z,18.75
2023-02-15T11:30:10.426Z,19.20
2023-02-15T11:32:41.423Z,19.05
2023-02-15T11:35:10.938Z,17.23
2023-02-15T11:37:55.158Z,19.37
2023-02-15T11:40:24.127Z,19.53
2023-02-15T11:42:53.965Z,16.43
2023-02-15T11:45:32.502Z,19.20
2023-02-15T11:48:01.040Z,17.20
2023-02-15T11:50:33.570Z,19.83
2023-02-15T11:53:07.060Z,18.03
2023-02-15T11:55:36.058Z,18.47
2023-02-15T11:58:08.116Z,19.77
2023-02-15T12:00:46.700Z,16.93
2023-02-15T12:03:24.337Z,18.50
2023-02-15T12:05:58.138Z,14.23
2023-02-15T12:08:38.056Z,16.60
2023-02-15T12:11:08.756Z,17.00
2023-02-15T12:13:35.552Z,16.00
2023-02-15T12:16:11.353Z,14.80
2023-02-15T12:18:41.457Z,13.40
2023-02-15T12:21:12.804Z,14.77
2023-02-15T12:23:49.193Z,17.20
2023-02-15T12:26:24.049Z,14.87
2023-02-15T12:28:53.001Z,14.43
2023-02-15T12:31:32.924Z,14.80
2023-02-15T12:34:03.545Z,14.90
2023-02-15T12:36:55.358Z,13.93
2023-02-15T12:39:28.462Z,11.50
2023-02-15T12:41:55.256Z,16.63
2023-02-15T12:44:29.837Z,15.57
2023-02-15T12:47:06.738Z,14.10
2023-02-15T12:49:38.072Z,14.20
2023-02-15T12:52:21.029Z,14.63
2023-02-15T12:54:49.046Z,15.30
2023-02-15T12:57:29.286Z,15.40
2023-02-15T12:59:57.465Z,15.20
2023-02-15T13:02:52.441Z,13.87
2023-02-15T13:05:28.535Z,15.63
2023-02-15T13:07:59.124Z,18.13
2023-02-15T13:10:30.695Z,19.67
2023-02-15T13:12:58.967Z,16.10
2023-02-15T13:15:38.323Z,16.43
2023-02-15T13:18:11.406Z,16.33
2023-02-15T13:20:41.588Z,15.03
2023-02-15T13:23:30.052Z,15.30
2023-02-15T13:26:03.854Z,15.33
2023-02-15T13:28:41.891Z,16.30
2023-02-15T13:31:33.688Z,17.00
2023-02-15T13:34:29.375Z,17.93
2023-02-15T13:37:17.493Z,19.10
2023-02-15T13:40:08.880Z,15.07
2023-02-15T13:42:55.825Z,15.63
2023-02-15T13:45:24.326Z,16.47
2023-02-15T13:47:54.076Z,18.83
2023-02-15T13:50:57.956Z,16.77
2023-02-15T13:53:53.019Z,16.27
2023-02-15T13:56:49.007Z,17.20
2023-02-15T13:59:41.426Z,22.27
2023-02-15T14:02:23.048Z,15.33
2023-02-15T14:05:14.703Z,18.13
2023-02-15T14:08:06.151Z,18.80
2023-02-15T14:10:54.476Z,19.67
2023-02-15T14:13:35.849Z,16.83
2023-02-15T14:16:29.956Z,18.27
2023-02-15T14:19:10.101Z,16.80
2023-02-15T14:21:59.073Z,20.63
2023-02-15T14:24:47.394Z,20.13
2023-02-15T14:28:00.585Z,18.87
2023-02-15T14:30:34.116Z,21.33
2023-02-15T14:33:43.743Z,21.93
2023-02-15T14:36:17.256Z,20.63
2023-02-15T14:38:55.420Z,29.77
2023-02-15T14:41:33.496Z,23.00
2023-02-15T14:44:14.328Z,26.53
2023-02-15T14:46:55.924Z,31.03
2023-02-15T14:49:30.863Z,25.00
2023-02-15T14:52:00.853Z,26.90
2023-02-15T14:54:30.370Z,29.10
2023-02-15T14:57:03.361Z,24.23
2023-02-15T14:59:47.155Z,28.47
2023-02-15T15:02:19.692Z,32.87
2023-02-15T15:05:11.239Z,33.63
2023-02-15T15:07:49.200Z,35.50
2023-02-15T15:10:18.884Z,29.17
2023-02-15T15:12:58.410Z,28.50
2023-02-15T15:15:28.227Z,26.90
2023-02-15T15:17:57.984Z,34.00
2023-02-15T15:20:28.051Z,29.70
2023-02-15T15:23:16.489Z,28.37
2023-02-15T15:26:18.246Z,35.90
2023-02-15T15:28:44.958Z,31.60
2023-02-15T15:31:21.382Z,27.33
2023-02-15T15:34:19.880Z,42.03
2023-02-15T15:37:05.981Z,35.27
2023-02-15T15:39:47.731Z,34.53
2023-02-15T15:42:29.383Z,33.40
2023-02-15T15:45:12.059Z,28.60
2023-02-15T15:48:07.766Z,32.53
2023-02-15T15:50:35.296Z,42.30
2023-02-15T15:53:04.210Z,38.73
2023-02-15T15:55:34.646Z,31.30
2023-02-15T15:58:05.137Z,38.50
2023-02-15T16:00:52.229Z,35.03
2023-02-15T16:03:23.552Z,64.43
2023-02-15T16:05:55.293Z,48.57
2023-02-15T16:08:34.570Z,54.70
2023-02-15T16:11:11.764Z,64.07
2023-02-15T16:13:44.649Z,54.63
2023-02-15T16:16:14.140Z,39.03
2023-02-15T16:18:43.393Z,37.80
2023-02-15T16:21:19.260Z,40.10
2023-02-15T16:24:12.168Z,34.27
2023-02-15T16:27:05.154Z,39.00
2023-02-15T16:29:34.166Z,38.07
2023-02-15T16:32:05.189Z,42.30
2023-02-15T16:34:33.657Z,37.17
2023-02-15T16:37:22.957Z,34.00
2023-02-15T16:39:50.118Z,31.03
2023-02-15T16:42:18.436Z,27.67
2023-02-15T16:44:49.358Z,24.87
2023-02-15T16:47:29.790Z,26.50
2023-02-15T16:50:03.057Z,27.03
2023-02-15T16:52:30.740Z,25.33
2023-02-15T16:55:04.324Z,24.73
2023-02-15T16:57:36.237Z,26.60
2023-02-15T17:00:09.201Z,27.43
2023-02-15T17:02:55.967Z,30.47
2023-02-15T17:05:23.883Z,29.73
2023-02-15T17:08:18.271Z,33.87
2023-02-15T17:11:02.704Z,30.20
2023-02-15T17:13:30.373Z,33.33
2023-02-15T17:16:03.334Z,28.00
2023-02-15T17:18:33.641Z,31.30
2023-02-15T17:21:09.399Z,29.23
2023-02-15T17:23:45.806Z,30.73
2023-02-15T17:26:17.161Z,34.50
2023-02-15T17:28:51.709Z,38.07
2023-02-15T17:31:20.839Z,32.20
2023-02-15T17:33:48.637Z,33.30
2023-02-15T17:36:23.582Z,35.70
2023-02-15T17:38:59.294Z,34.28
2023-02-15T17:41:28.641Z,31.45
2023-02-15T17:43:55.705Z,31.08
2023-02-15T17:46:22.875Z,31.17
2023-02-15T17:48:51.815Z,38.42
2023-02-15T17:51:20.470Z,36.40
2023-02-15T17:54:06.853Z,34.85
2023-02-15T17:56:34.369Z,36.22
2023-02-15T17:59:01.162Z,36.95
2023-02-15T18:01:46.434Z,47.72
2023-02-15T18:04:33.549Z,37.28
2023-02-15T18:07:19.115Z,35.60
2023-02-15T18:10:04.556Z,38.80
2023-02-15T18:12:33.890Z,37.97
2023-02-15T18:15:03.735Z,37.90
2023-02-15T18:17:46.091Z,39.80
2023-02-15T18:20:20.424Z,37.55
2023-02-15T18:22:47.385Z,31.08
2023-02-15T18:25:16.753Z,38.95
2023-02-15T18:27:43.680Z,37.90
2023-02-15T18:30:16.093Z,38.35
2023-02-15T18:32:43.619Z,33.28
2023-02-15T18:35:19.463Z,41.13
2023-02-15T18:37:47.245Z,45.55
2023-02-15T18:40:27.252Z,39.88
2023-02-15T18:42:54.611Z,34.38
2023-02-15T18:45:32.910Z,34.40
2023-02-15T18:48:00.030Z,37.97
2023-02-15T18:50:31.232Z,40.83
2023-02-15T18:52:57.974Z,44.35
2023-02-15T18:55:28.758Z,41.50
2023-02-15T18:57:56.989Z,47.45
2023-02-15T19:00:29.237Z,46.00
2023-02-15T19:02:57.217Z,49.22
2023-02-15T19:05:27.423Z,44.63
2023-02-15T19:07:54.926Z,45.13
2023-02-15T19:10:25.091Z,41.80
2023-02-15T19:12:52.962Z,41.38
2023-02-15T19:15:23.493Z,54.50
2023-02-15T19:17:51.171Z,52.33
2023-02-15T19:20:19.500Z,46.67
2023-02-15T19:22:49.123Z,44.55
2023-02-15T19:25:21.013Z,50.53
2023-02-15T19:27:48.211Z,51.42
2023-02-15T19:30:24.627Z,52.45
2023-02-15T19:32:51.413Z,63.97
2023-02-15T19:35:21.827Z,59.00
2023-02-15T19:38:00.309Z,56.85
2023-02-15T19:40:33.196Z,65.30
2023-02-15T19:43:00.239Z,70.95
2023-02-15T19:45:28.857Z,57.58
2023-02-15T19:47:56.362Z,71.00
2023-02-15T19:50:25.892Z,73.03
2023-02-15T19:52:53.040Z,67.22
2023-02-15T19:55:34.202Z,71.13
2023-02-15T19:58:02.319Z,78.70
2023-02-15T20:00:32.023Z,77.10
2023-02-15T20:02:59.790Z,75.32
2023-02-15T20:05:31.246Z,78.80
2023-02-15T20:07:58.446Z,83.72
2023-02-15T20:10:29.006Z,82.55
2023-02-15T20:12:56.233Z,84.63
2023-02-15T20:15:31.906Z,98.25
2023-02-15T20:18:00.104Z,87.13
2023-02-15T20:20:42.875Z,62.70
2023-02-15T20:23:38.987Z,67.43
2023-02-15T20:26:18.324Z,72.88
2023-02-15T20:28:46.417Z,66.93
2023-02-15T20:31:17.723Z,57.83
2023-02-15T20:33:44.576Z,60.65
2023-02-15T20:36:16.578Z,62.35
2023-02-15T20:38:44.194Z,62.95
2023-02-15T20:41:35.031Z,67.80
2023-02-15T20:44:13.896Z,55.00
2023-02-15T20:46:40.660Z,64.18
2023-02-15T20:49:07.410Z,70.65
2023-02-15T20:51:34.286Z,63.63
2023-02-15T20:54:01.461Z,56.72
2023-02-15T20:56:28.236Z,61.03
2023-02-15T20:58:55.066Z,65.55
2023-02-15T21:01:21.901Z,51.17
2023-02-15T21:03:48.901Z,70.50
2023-02-15T21:06:16.531Z,58.95
2023-02-15T21:08:43.818Z,61.97
2023-02-15T21:11:22.149Z,51.00
2023-02-15T21:13:50.807Z,55.85
2023-02-15T21:16:17.747Z,50.60
2023-02-15T21:18:44.567Z,66.95
2023-02-15T21:21:22.292Z,50.38
2023-02-15T21:23:49.480Z,52.28
2023-02-15T21:26:19.927Z,47.22
2023-02-15T21:28:47.342Z,54.92
2023-02-15T21:31:21.012Z,63.40
2023-02-15T21:33:47.824Z,49.63
2023-02-15T21:36:24.201Z,65.53
2023-02-15T21:38:51.223Z,59.33
2023-02-15T21:41:41.243Z,59.28
2023-02-15T21:44:41.391Z,47.63
2023-02-15T21:47:40.249Z,48.17
2023-02-15T21:50:29.387Z,59.22
2023-02-15T21:52:56.458Z,58.67
2023-02-15T21:55:23.218Z,65.88
2023-02-15T21:57:49.932Z,72.80
2023-02-15T22:00:22.045Z,65.80
2023-02-15T22:02:51.890Z,98.05
2023-02-15T22:05:26.794Z,73.50
2023-02-15T22:07:53.578Z,65.50
2023-02-15T22:10:22.625Z,41.45
2023-02-15T22:12:50.699Z,52.58
2023-02-15T22:15:23.228Z,37.53
2023-02-15T22:17:51.087Z,41.58
2023-02-15T22:20:20.785Z,32.55
2023-02-15T22:22:48.143Z,33.00
2023-02-15T22:25:17.140Z,35.05
2023-02-15T22:27:45.742Z,38.30
2023-02-15T22:30:21.431Z,37.50
2023-02-15T22:32:48.842Z,32.17
2023-02-15T22:35:23.137Z,38.40
2023-02-15T22:37:49.895Z,39.65
2023-02-15T22:40:18.313Z,35.83
2023-02-15T22:42:52.733Z,44.50
2023-02-15T22:45:25.122Z,38.13
2023-02-15T22:47:54.248Z,36.45
2023-02-15T22:50:32.204Z,35.03
2023-02-15T22:53:03.559Z,38.28
2023-02-15T22:55:36.923Z,33.63
2023-02-15T22:58:04.328Z,41.40
2023-02-15T23:00:40.579Z,39.03
2023-02-15T23:03:18.565Z,33.65
2023-02-15T23:05:46.938Z,36.03
2023-02-15T23:08:13.836Z,34.45
2023-02-15T23:10:42.471Z,30.75
2023-02-15T23:13:25.285Z,32.17
2023-02-15T23:15:56.757Z,39.22
2023-02-15T23:18:41.747Z,39.90
2023-02-15T23:21:31.152Z,33.45
2023-02-15T23:24:09.740Z,34.70
2023-02-15T23:26:36.474Z,40.65
2023-02-15T23:29:04.016Z,37.72
2023-02-15T23:31:33.457Z,34.83
2023-02-15T23:34:02.383Z,37.75
2023-02-15T23:36:30.686Z,52.95
2023-02-15T23:39:25.360Z,27.40
2023-02-15T23:41:52.209Z,38.72
2023-02-15T23:44:19.380Z,27.17
2023-02-15T23:46:47.319Z,36.05
2023-02-15T23:49:16.647Z,49.30
2023-02-15T23:51:46.074Z,119.95
2023-02-15T23:54:14.295Z,44.53
2023-02-15T23:56:42.979Z,38.50
2023-02-15T23:59:20.318Z,31.73
